sensor_id;sensor_type;location;lat;lon;timestamp;P1;durP1;ratioP1;P2;durP2;ratioP2
41897;SDS011;27576;53.366;-1.498;2023-12-20T00:01:00;20.35;;;4.85;;
41897;SDS011;27576;53.366;-1.498;2023-12-20T00:03:25;19.38;;;3.65;;
41897;SDS011;27576;53.366;-1.498;2023-12-20T00:05:51;20.20;;;4.05;;
41897;SDS011;27576;53.366;-1.498;2023-12-20T00:08:17;12.15;;;3.13;;
41897;SDS011;27576;53.366;-1.498;2023-12-20T00:10:45;16.20;;;3.55;;
41897;SDS011;27576;53.366;-1.498;2023-12-20T00:13:11;13.82;;;3.50;;
41897;SDS011;27576;53.366;-1.498;2023-12-20T00:15:36;16.95;;;3.83;;
41897;SDS011;27576;53.366;-1.498;2023-12-20T00:18:02;18.48;;;3.75;;
41897;SDS011;27576;53.366;-1.498;2023-12-20T00:20:28;16.42;;;3.78;;
41897;SDS011;27576;53.366;-1.498;2023-12-20T00:22:55;16.48;;;3.47;;
41897;SDS011;27576;53.366;-1.498;2023-12-20T00:25:22;23.23;;;3.97;;
41897;SDS011;27576;53.366;-1.498;2023-12-20T00:27:47;20.85;;;4.28;;
41897;SDS011;27576;53.366;-1.498;2023-12-20T00:30:12;21.58;;;3.50;;
41897;SDS011;27576;53.366;-1.498;2023-12-20T00:32:38;18.40;;;4.00;;
41897;SDS011;27576;53.366;-1.498;2023-12-20T00:35:03;17.63;;;3.78;;
41897;SDS011;27576;53.366;-1.498;2023-12-20T00:37:29;18.10;;;4.07;;
41897;SDS011;27576;53.366;-1.498;2023-12-20T00:39:55;15.63;;;3.90;;
41897;SDS011;27576;53.366;-1.498;2023-12-20T00:42:21;24.23;;;4.80;;
41897;SDS011;27576;53.366;-1.498;2023-12-20T00:44:46;16.33;;;4.10;;
41897;SDS011;27576;53.366;-1.498;2023-12-20T00:47:12;17.13;;;4.20;;
41897;SDS011;27576;53.366;-1.498;2023-12-20T00:49:38;15.93;;;3.45;;
41897;SDS011;27576;53.366;-1.498;2023-12-20T00:52:03;14.07;;;3.53;;
41897;SDS011;27576;53.366;-1.498;2023-12-20T00:54:29;23.00;;;3.72;;
41897;SDS011;27576;53.366;-1.498;2023-12-20T00:56:55;11.50;;;3.45;;
41897;SDS011;27576;53.366;-1.498;2023-12-20T00:59:21;16.40;;;3.28;;
41897;SDS011;27576;53.366;-1.498;2023-12-20T01:01:46;15.88;;;3.97;;
41897;SDS011;27576;53.366;-1.498;2023-12-20T01:04:12;20.75;;;4.38;;
41897;SDS011;27576;53.366;-1.498;2023-12-20T01:06:37;14.57;;;3.40;;
41897;SDS011;27576;53.366;-1.498;2023-12-20T01:09:02;20.42;;;3.90;;
41897;SDS011;27576;53.366;-1.498;2023-12-20T01:11:28;22.52;;;4.18;;
41897;SDS011;27576;53.366;-1.498;2023-12-20T01:13:53;16.88;;;3.45;;
41897;SDS011;27576;53.366;-1.498;2023-12-20T01:16:19;20.77;;;4.10;;
41897;SDS011;27576;53.366;-1.498;2023-12-20T01:18:44;14.93;;;3.50;;
41897;SDS011;27576;53.366;-1.498;2023-12-20T01:21:10;21.65;;;4.35;;
41897;SDS011;27576;53.366;-1.498;2023-12-20T01:23:35;19.73;;;5.05;;
41897;SDS011;27576;53.366;-1.498;2023-12-20T01:26:01;21.98;;;4.10;;
41897;SDS011;27576;53.366;-1.498;2023-12-20T01:28:27;14.40;;;3.65;;
41897;SDS011;27576;53.366;-1.498;2023-12-20T01:30:53;12.57;;;3.88;;
41897;SDS011;27576;53.366;-1.498;2023-12-20T01:33:18;23.77;;;4.15;;
41897;SDS011;27576;53.366;-1.498;2023-12-20T01:35:43;14.90;;;3.65;;
41897;SDS011;27576;53.366;-1.498;2023-12-20T01:38:09;17.88;;;4.18;;
41897;SDS011;27576;53.366;-1.498;2023-12-20T01:40:34;17.98;;;3.97;;
41897;SDS011;27576;53.366;-1.498;2023-12-20T01:43:02;13.57;;;4.03;;
41897;SDS011;27576;53.366;-1.498;2023-12-20T01:45:33;20.25;;;4.75;;
41897;SDS011;27576;53.366;-1.498;2023-12-20T01:47:59;13.82;;;3.75;;
41897;SDS011;27576;53.366;-1.498;2023-12-20T01:50:25;22.80;;;4.13;;
41897;SDS011;27576;53.366;-1.498;2023-12-20T01:52:52;18.98;;;3.25;;
41897;SDS011;27576;53.366;-1.498;2023-12-20T01:55:22;15.05;;;3.50;;
41897;SDS011;27576;53.366;-1.498;2023-12-20T01:57:49;15.35;;;3.35;;
41897;SDS011;27576;53.366;-1.498;2023-12-20T02:00:15;14.02;;;3.50;;
41897;SDS011;27576;53.366;-1.498;2023-12-20T02:02:41;22.92;;;4.47;;
41897;SDS011;27576;53.366;-1.498;2023-12-20T02:05:09;18.13;;;4.18;;
41897;SDS011;27576;53.366;-1.498;2023-12-20T02:07:35;16.25;;;4.50;;
41897;SDS011;27576;53.366;-1.498;2023-12-20T02:10:04;22.10;;;5.03;;
41897;SDS011;27576;53.366;-1.498;2023-12-20T02:12:30;18.63;;;4.30;;
41897;SDS011;27576;53.366;-1.498;2023-12-20T02:14:55;16.48;;;4.30;;
41897;SDS011;27576;53.366;-1.498;2023-12-20T02:17:21;19.42;;;4.72;;
41897;SDS011;27576;53.366;-1.498;2023-12-20T02:19:47;17.90;;;4.03;;
41897;SDS011;27576;53.366;-1.498;2023-12-20T02:22:13;16.55;;;4.03;;
41897;SDS011;27576;53.366;-1.498;2023-12-20T02:24:38;21.33;;;4.30;;
41897;SDS011;27576;53.366;-1.498;2023-12-20T02:27:05;19.92;;;3.95;;
41897;SDS011;27576;53.366;-1.498;2023-12-20T02:29:32;21.17;;;4.20;;
41897;SDS011;27576;53.366;-1.498;2023-12-20T02:32:01;20.77;;;4.00;;
41897;SDS011;27576;53.366;-1.498;2023-12-20T02:34:27;19.40;;;3.70;;
41897;SDS011;27576;53.366;-1.498;2023-12-20T02:36:53;20.73;;;4.18;;
41897;SDS011;27576;53.366;-1.498;2023-12-20T02:39:19;21.10;;;4.38;;
41897;SDS011;27576;53.366;-1.498;2023-12-20T02:41:44;21.00;;;4.95;;
41897;SDS011;27576;53.366;-1.498;2023-12-20T02:44:09;15.00;;;3.60;;
41897;SDS011;27576;53.366;-1.498;2023-12-20T02:46:35;19.80;;;4.30;;
41897;SDS011;27576;53.366;-1.498;2023-12-20T02:49:00;19.02;;;3.92;;
41897;SDS011;27576;53.366;-1.498;2023-12-20T02:51:26;16.23;;;3.70;;
41897;SDS011;27576;53.366;-1.498;2023-12-20T02:53:51;17.75;;;3.90;;
41897;SDS011;27576;53.366;-1.498;2023-12-20T02:56:16;23.15;;;4.55;;
41897;SDS011;27576;53.366;-1.498;2023-12-20T02:58:42;25.45;;;4.47;;
41897;SDS011;27576;53.366;-1.498;2023-12-20T03:01:07;20.50;;;4.18;;
41897;SDS011;27576;53.366;-1.498;2023-12-20T03:03:32;14.77;;;3.58;;
41897;SDS011;27576;53.366;-1.498;2023-12-20T03:05:58;13.27;;;3.67;;
41897;SDS011;27576;53.366;-1.498;2023-12-20T03:08:24;19.73;;;3.83;;
41897;SDS011;27576;53.366;-1.498;2023-12-20T03:10:49;20.85;;;3.97;;
41897;SDS011;27576;53.366;-1.498;2023-12-20T03:13:15;20.45;;;4.32;;
41897;SDS011;27576;53.366;-1.498;2023-12-20T03:15:40;12.70;;;3.17;;
41897;SDS011;27576;53.366;-1.498;2023-12-20T03:18:06;16.90;;;3.80;;
41897;SDS011;27576;53.366;-1.498;2023-12-20T03:20:31;14.75;;;3.55;;
41897;SDS011;27576;53.366;-1.498;2023-12-20T03:22:59;10.82;;;3.50;;
41897;SDS011;27576;53.366;-1.498;2023-12-20T03:25:27;14.45;;;3.60;;
41897;SDS011;27576;53.366;-1.498;2023-12-20T03:27:53;12.75;;;3.55;;
41897;SDS011;27576;53.366;-1.498;2023-12-20T03:30:18;12.00;;;3.10;;
41897;SDS011;27576;53.366;-1.498;2023-12-20T03:32:44;14.32;;;3.47;;
41897;SDS011;27576;53.366;-1.498;2023-12-20T03:35:09;15.95;;;3.13;;
41897;SDS011;27576;53.366;-1.498;2023-12-20T03:37:35;13.52;;;2.85;;
41897;SDS011;27576;53.366;-1.498;2023-12-20T03:40:01;18.60;;;3.33;;
41897;SDS011;27576;53.366;-1.498;2023-12-20T03:42:28;13.20;;;3.30;;
41897;SDS011;27576;53.366;-1.498;2023-12-20T03:44:53;20.17;;;3.83;;
41897;SDS011;27576;53.366;-1.498;2023-12-20T03:47:18;18.58;;;3.55;;
41897;SDS011;27576;53.366;-1.498;2023-12-20T03:49:44;14.32;;;3.80;;
41897;SDS011;27576;53.366;-1.498;2023-12-20T03:52:09;16.67;;;3.63;;
41897;SDS011;27576;53.366;-1.498;2023-12-20T03:54:35;17.73;;;3.67;;
41897;SDS011;27576;53.366;-1.498;2023-12-20T03:57:00;17.70;;;3.83;;
41897;SDS011;27576;53.366;-1.498;2023-12-20T03:59:26;18.27;;;3.42;;
41897;SDS011;27576;53.366;-1.498;2023-12-20T04:01:52;17.70;;;3.85;;
41897;SDS011;27576;53.366;-1.498;2023-12-20T04:04:18;17.02;;;3.58;;
41897;SDS011;27576;53.366;-1.498;2023-12-20T04:06:44;19.48;;;3.55;;
41897;SDS011;27576;53.366;-1.498;2023-12-20T04:09:09;16.30;;;4.20;;
41897;SDS011;27576;53.366;-1.498;2023-12-20T04:11:35;13.57;;;3.22;;
41897;SDS011;27576;53.366;-1.498;2023-12-20T04:14:01;18.02;;;4.18;;
41897;SDS011;27576;53.366;-1.498;2023-12-20T04:16:26;17.50;;;3.95;;
41897;SDS011;27576;53.366;-1.498;2023-12-20T04:18:52;16.92;;;3.47;;
41897;SDS011;27576;53.366;-1.498;2023-12-20T04:21:17;20.60;;;3.63;;
41897;SDS011;27576;53.366;-1.498;2023-12-20T04:23:43;11.98;;;3.42;;
41897;SDS011;27576;53.366;-1.498;2023-12-20T04:26:08;13.40;;;3.30;;
41897;SDS011;27576;53.366;-1.498;2023-12-20T04:28:34;17.65;;;3.20;;
41897;SDS011;27576;53.366;-1.498;2023-12-20T04:30:59;13.95;;;3.85;;
41897;SDS011;27576;53.366;-1.498;2023-12-20T04:33:25;16.15;;;3.70;;
41897;SDS011;27576;53.366;-1.498;2023-12-20T04:35:50;18.77;;;3.30;;
41897;SDS011;27576;53.366;-1.498;2023-12-20T04:38:16;20.83;;;3.40;;
41897;SDS011;27576;53.366;-1.498;2023-12-20T04:40:41;14.15;;;3.63;;
41897;SDS011;27576;53.366;-1.498;2023-12-20T04:43:07;18.00;;;3.40;;
41897;SDS011;27576;53.366;-1.498;2023-12-20T04:45:33;18.10;;;3.08;;
41897;SDS011;27576;53.366;-1.498;2023-12-20T04:47:59;18.00;;;3.35;;
41897;SDS011;27576;53.366;-1.498;2023-12-20T04:50:25;13.77;;;2.80;;
41897;SDS011;27576;53.366;-1.498;2023-12-20T04:52:51;15.25;;;3.55;;
41897;SDS011;27576;53.366;-1.498;2023-12-20T04:55:16;14.93;;;3.65;;
41897;SDS011;27576;53.366;-1.498;2023-12-20T04:57:42;20.05;;;3.67;;
41897;SDS011;27576;53.366;-1.498;2023-12-20T05:00:08;12.27;;;2.75;;
41897;SDS011;27576;53.366;-1.498;2023-12-20T05:02:37;14.05;;;2.78;;
41897;SDS011;27576;53.366;-1.498;2023-12-20T05:05:02;11.98;;;2.60;;
41897;SDS011;27576;53.366;-1.498;2023-12-20T05:07:28;16.73;;;2.85;;
41897;SDS011;27576;53.366;-1.498;2023-12-20T05:09:53;11.85;;;2.92;;
41897;SDS011;27576;53.366;-1.498;2023-12-20T05:12:19;13.45;;;3.03;;
41897;SDS011;27576;53.366;-1.498;2023-12-20T05:14:44;10.57;;;2.85;;
41897;SDS011;27576;53.366;-1.498;2023-12-20T05:17:11;8.25;;;2.47;;
41897;SDS011;27576;53.366;-1.498;2023-12-20T05:19:36;15.38;;;3.22;;
41897;SDS011;27576;53.366;-1.498;2023-12-20T05:22:02;16.17;;;2.83;;
41897;SDS011;27576;53.366;-1.498;2023-12-20T05:24:27;14.10;;;3.20;;
41897;SDS011;27576;53.366;-1.498;2023-12-20T05:26:53;12.20;;;3.45;;
41897;SDS011;27576;53.366;-1.498;2023-12-20T05:29:18;16.52;;;2.80;;
41897;SDS011;27576;53.366;-1.498;2023-12-20T05:31:44;15.35;;;3.40;;
41897;SDS011;27576;53.366;-1.498;2023-12-20T05:34:09;14.73;;;2.95;;
41897;SDS011;27576;53.366;-1.498;2023-12-20T05:36:35;14.57;;;3.20;;
41897;SDS011;27576;53.366;-1.498;2023-12-20T05:39:01;13.82;;;3.20;;
41897;SDS011;27576;53.366;-1.498;2023-12-20T05:41:28;17.67;;;3.70;;
41897;SDS011;27576;53.366;-1.498;2023-12-20T05:43:54;21.95;;;3.90;;
41897;SDS011;27576;53.366;-1.498;2023-12-20T05:46:19;11.48;;;2.63;;
41897;SDS011;27576;53.366;-1.498;2023-12-20T05:48:46;15.77;;;3.25;;
41897;SDS011;27576;53.366;-1.498;2023-12-20T05:51:11;18.85;;;3.40;;
41897;SDS011;27576;53.366;-1.498;2023-12-20T05:53:37;16.15;;;3.35;;
41897;SDS011;27576;53.366;-1.498;2023-12-20T05:56:03;17.00;;;3.10;;
41897;SDS011;27576;53.366;-1.498;2023-12-20T05:58:29;12.02;;;2.97;;
41897;SDS011;27576;53.366;-1.498;2023-12-20T06:00:54;17.45;;;3.45;;
41897;SDS011;27576;53.366;-1.498;2023-12-20T06:03:20;18.90;;;3.15;;
41897;SDS011;27576;53.366;-1.498;2023-12-20T06:05:45;14.70;;;2.78;;
41897;SDS011;27576;53.366;-1.498;2023-12-20T06:08:10;18.33;;;3.60;;
41897;SDS011;27576;53.366;-1.498;2023-12-20T06:10:36;18.63;;;3.30;;
41897;SDS011;27576;53.366;-1.498;2023-12-20T06:13:01;13.05;;;2.55;;
41897;SDS011;27576;53.366;-1.498;2023-12-20T06:15:29;15.63;;;3.58;;
41897;SDS011;27576;53.366;-1.498;2023-12-20T06:17:54;15.35;;;2.83;;
41897;SDS011;27576;53.366;-1.498;2023-12-20T06:20:20;16.13;;;3.00;;
41897;SDS011;27576;53.366;-1.498;2023-12-20T06:22:46;15.82;;;3.00;;
41897;SDS011;27576;53.366;-1.498;2023-12-20T06:25:12;16.80;;;3.00;;
41897;SDS011;27576;53.366;-1.498;2023-12-20T06:27:37;15.13;;;2.92;;
41897;SDS011;27576;53.366;-1.498;2023-12-20T06:30:02;18.17;;;2.92;;
41897;SDS011;27576;53.366;-1.498;2023-12-20T06:32:28;12.68;;;3.00;;
41897;SDS011;27576;53.366;-1.498;2023-12-20T06:34:54;15.63;;;3.17;;
41897;SDS011;27576;53.366;-1.498;2023-12-20T06:37:19;12.50;;;2.85;;
41897;SDS011;27576;53.366;-1.498;2023-12-20T06:39:45;11.00;;;2.55;;
41897;SDS011;27576;53.366;-1.498;2023-12-20T06:42:12;16.35;;;3.00;;
41897;SDS011;27576;53.366;-1.498;2023-12-20T06:44:38;16.67;;;3.00;;
41897;SDS011;27576;53.366;-1.498;2023-12-20T06:47:04;15.35;;;3.40;;
41897;SDS011;27576;53.366;-1.498;2023-12-20T06:49:29;14.93;;;3.33;;
41897;SDS011;27576;53.366;-1.498;2023-12-20T06:51:55;14.60;;;3.00;;
41897;SDS011;27576;53.366;-1.498;2023-12-20T06:54:20;10.23;;;2.75;;
41897;SDS011;27576;53.366;-1.498;2023-12-20T06:56:45;7.70;;;2.55;;
41897;SDS011;27576;53.366;-1.498;2023-12-20T06:59:11;11.05;;;2.80;;
41897;SDS011;27576;53.366;-1.498;2023-12-20T07:01:36;17.35;;;3.20;;
41897;SDS011;27576;53.366;-1.498;2023-12-20T07:04:03;13.20;;;2.97;;
41897;SDS011;27576;53.366;-1.498;2023-12-20T07:06:28;10.75;;;2.90;;
41897;SDS011;27576;53.366;-1.498;2023-12-20T07:08:54;14.75;;;2.78;;
41897;SDS011;27576;53.366;-1.498;2023-12-20T07:11:19;19.05;;;3.35;;
41897;SDS011;27576;53.366;-1.498;2023-12-20T07:13:44;11.32;;;2.92;;
41897;SDS011;27576;53.366;-1.498;2023-12-20T07:16:10;9.82;;;2.28;;
41897;SDS011;27576;53.366;-1.498;2023-12-20T07:18:35;13.18;;;3.00;;
41897;SDS011;27576;53.366;-1.498;2023-12-20T07:21:01;13.80;;;2.58;;
41897;SDS011;27576;53.366;-1.498;2023-12-20T07:23:26;13.70;;;3.00;;
41897;SDS011;27576;53.366;-1.498;2023-12-20T07:25:52;10.85;;;3.10;;
41897;SDS011;27576;53.366;-1.498;2023-12-20T07:28:17;12.88;;;2.63;;
41897;SDS011;27576;53.366;-1.498;2023-12-20T07:30:43;10.98;;;2.30;;
41897;SDS011;27576;53.366;-1.498;2023-12-20T07:33:08;12.48;;;3.28;;
41897;SDS011;27576;53.366;-1.498;2023-12-20T07:35:34;8.25;;;2.33;;
41897;SDS011;27576;53.366;-1.498;2023-12-20T07:38:00;11.20;;;2.35;;
41897;SDS011;27576;53.366;-1.498;2023-12-20T07:40:25;12.88;;;2.97;;
41897;SDS011;27576;53.366;-1.498;2023-12-20T07:42:51;14.98;;;2.95;;
41897;SDS011;27576;53.366;-1.498;2023-12-20T07:45:16;16.25;;;2.95;;
41897;SDS011;27576;53.366;-1.498;2023-12-20T07:47:41;9.02;;;2.70;;
41897;SDS011;27576;53.366;-1.498;2023-12-20T07:50:07;10.65;;;2.55;;
41897;SDS011;27576;53.366;-1.498;2023-12-20T07:52:32;11.98;;;2.60;;
41897;SDS011;27576;53.366;-1.498;2023-12-20T07:54:58;16.88;;;3.10;;
41897;SDS011;27576;53.366;-1.498;2023-12-20T07:57:23;11.18;;;2.95;;
41897;SDS011;27576;53.366;-1.498;2023-12-20T07:59:49;16.83;;;3.38;;
41897;SDS011;27576;53.366;-1.498;2023-12-20T08:02:14;10.88;;;2.80;;
41897;SDS011;27576;53.366;-1.498;2023-12-20T08:04:40;12.75;;;2.60;;
41897;SDS011;27576;53.366;-1.498;2023-12-20T08:07:06;16.35;;;3.03;;
41897;SDS011;27576;53.366;-1.498;2023-12-20T08:09:32;13.77;;;2.63;;
41897;SDS011;27576;53.366;-1.498;2023-12-20T08:11:58;12.05;;;2.58;;
41897;SDS011;27576;53.366;-1.498;2023-12-20T08:14:25;12.50;;;3.22;;
41897;SDS011;27576;53.366;-1.498;2023-12-20T08:16:50;11.68;;;2.70;;
41897;SDS011;27576;53.366;-1.498;2023-12-20T08:19:16;11.90;;;2.78;;
41897;SDS011;27576;53.366;-1.498;2023-12-20T08:21:42;12.55;;;2.70;;
41897;SDS011;27576;53.366;-1.498;2023-12-20T08:24:07;15.15;;;2.90;;
41897;SDS011;27576;53.366;-1.498;2023-12-20T08:26:33;9.82;;;2.28;;
41897;SDS011;27576;53.366;-1.498;2023-12-20T08:28:59;10.68;;;2.55;;
41897;SDS011;27576;53.366;-1.498;2023-12-20T08:31:24;8.95;;;2.60;;
41897;SDS011;27576;53.366;-1.498;2023-12-20T08:33:51;9.70;;;2.38;;
41897;SDS011;27576;53.366;-1.498;2023-12-20T08:36:18;7.18;;;2.65;;
41897;SDS011;27576;53.366;-1.498;2023-12-20T08:38:44;13.68;;;2.42;;
41897;SDS011;27576;53.366;-1.498;2023-12-20T08:41:10;11.32;;;2.50;;
41897;SDS011;27576;53.366;-1.498;2023-12-20T08:43:35;10.38;;;2.28;;
41897;SDS011;27576;53.366;-1.498;2023-12-20T08:46:01;7.20;;;1.92;;
41897;SDS011;27576;53.366;-1.498;2023-12-20T08:48:28;10.68;;;2.80;;
41897;SDS011;27576;53.366;-1.498;2023-12-20T08:50:54;11.25;;;2.30;;
41897;SDS011;27576;53.366;-1.498;2023-12-20T08:53:19;10.73;;;2.60;;
41897;SDS011;27576;53.366;-1.498;2023-12-20T08:55:45;13.93;;;3.15;;
41897;SDS011;27576;53.366;-1.498;2023-12-20T08:58:10;20.27;;;3.05;;
41897;SDS011;27576;53.366;-1.498;2023-12-20T09:00:36;9.75;;;3.05;;
41897;SDS011;27576;53.366;-1.498;2023-12-20T09:03:01;14.05;;;4.88;;
41897;SDS011;27576;53.366;-1.498;2023-12-20T09:05:27;14.30;;;4.47;;
41897;SDS011;27576;53.366;-1.498;2023-12-20T09:07:53;15.57;;;4.63;;
41897;SDS011;27576;53.366;-1.498;2023-12-20T09:10:19;12.60;;;3.75;;
41897;SDS011;27576;53.366;-1.498;2023-12-20T09:12:50;11.48;;;3.75;;
41897;SDS011;27576;53.366;-1.498;2023-12-20T09:15:18;12.45;;;2.70;;
41897;SDS011;27576;53.366;-1.498;2023-12-20T09:17:43;16.33;;;3.83;;
41897;SDS011;27576;53.366;-1.498;2023-12-20T09:20:09;15.13;;;3.00;;
41897;SDS011;27576;53.366;-1.498;2023-12-20T09:22:36;12.48;;;2.75;;
41897;SDS011;27576;53.366;-1.498;2023-12-20T09:25:03;9.70;;;2.72;;
41897;SDS011;27576;53.366;-1.498;2023-12-20T09:27:29;11.32;;;3.05;;
41897;SDS011;27576;53.366;-1.498;2023-12-20T09:29:55;12.80;;;2.80;;
41897;SDS011;27576;53.366;-1.498;2023-12-20T09:32:20;9.10;;;2.10;;
41897;SDS011;27576;53.366;-1.498;2023-12-20T09:34:46;8.23;;;1.85;;
41897;SDS011;27576;53.366;-1.498;2023-12-20T09:37:12;11.35;;;2.30;;
41897;SDS011;27576;53.366;-1.498;2023-12-20T09:39:38;9.27;;;2.03;;
41897;SDS011;27576;53.366;-1.498;2023-12-20T09:42:04;11.35;;;2.28;;
41897;SDS011;27576;53.366;-1.498;2023-12-20T09:44:31;9.90;;;2.10;;
41897;SDS011;27576;53.366;-1.498;2023-12-20T09:46:58;7.22;;;2.20;;
41897;SDS011;27576;53.366;-1.498;2023-12-20T09:49:23;7.60;;;1.95;;
41897;SDS011;27576;53.366;-1.498;2023-12-20T09:51:53;7.75;;;1.77;;
41897;SDS011;27576;53.366;-1.498;2023-12-20T09:54:19;4.70;;;1.70;;
41897;SDS011;27576;53.366;-1.498;2023-12-20T09:56:46;5.45;;;1.98;;
41897;SDS011;27576;53.366;-1.498;2023-12-20T09:59:12;5.82;;;1.95;;
41897;SDS011;27576;53.366;-1.498;2023-12-20T10:01:39;5.78;;;1.55;;
41897;SDS011;27576;53.366;-1.498;2023-12-20T10:04:06;8.13;;;2.00;;
41897;SDS011;27576;53.366;-1.498;2023-12-20T10:06:37;4.28;;;1.60;;
41897;SDS011;27576;53.366;-1.498;2023-12-20T10:09:11;4.68;;;1.63;;
41897;SDS011;27576;53.366;-1.498;2023-12-20T10:11:37;4.57;;;1.70;;
41897;SDS011;27576;53.366;-1.498;2023-12-20T10:14:04;4.70;;;1.85;;
41897;SDS011;27576;53.366;-1.498;2023-12-20T10:16:30;4.30;;;1.55;;
41897;SDS011;27576;53.366;-1.498;2023-12-20T10:18:56;3.88;;;1.30;;
41897;SDS011;27576;53.366;-1.498;2023-12-20T10:21:22;4.85;;;1.65;;
41897;SDS011;27576;53.366;-1.498;2023-12-20T10:23:49;5.10;;;1.40;;
41897;SDS011;27576;53.366;-1.498;2023-12-20T10:28:51;4.57;;;1.20;;
41897;SDS011;27576;53.366;-1.498;2023-12-20T10:31:28;2.17;;;1.30;;
41897;SDS011;27576;53.366;-1.498;2023-12-20T10:33:58;3.65;;;1.13;;
41897;SDS011;27576;53.366;-1.498;2023-12-20T10:36:29;3.10;;;1.10;;
41897;SDS011;27576;53.366;-1.498;2023-12-20T10:38:56;2.10;;;1.10;;
41897;SDS011;27576;53.366;-1.498;2023-12-20T10:41:40;3.95;;;1.00;;
41897;SDS011;27576;53.366;-1.498;2023-12-20T10:44:08;2.25;;;1.17;;
41897;SDS011;27576;53.366;-1.498;2023-12-20T10:46:35;1.30;;;0.82;;
41897;SDS011;27576;53.366;-1.498;2023-12-20T10:49:03;5.05;;;1.10;;
41897;SDS011;27576;53.366;-1.498;2023-12-20T10:51:30;0.80;;;0.80;;
41897;SDS011;27576;53.366;-1.498;2023-12-20T10:53:56;1.35;;;0.88;;
41897;SDS011;27576;53.366;-1.498;2023-12-20T10:56:22;1.30;;;0.85;;
41897;SDS011;27576;53.366;-1.498;2023-12-20T10:58:51;1.45;;;0.80;;
41897;SDS011;27576;53.366;-1.498;2023-12-20T11:01:17;2.47;;;0.70;;
41897;SDS011;27576;53.366;-1.498;2023-12-20T11:03:50;1.25;;;0.70;;
41897;SDS011;27576;53.366;-1.498;2023-12-20T11:08:53;2.67;;;1.00;;
41897;SDS011;27576;53.366;-1.498;2023-12-20T11:11:37;1.85;;;0.98;;
41897;SDS011;27576;53.366;-1.498;2023-12-20T11:14:17;4.53;;;1.48;;
41897;SDS011;27576;53.366;-1.498;2023-12-20T11:16:47;3.00;;;1.40;;
41897;SDS011;27576;53.366;-1.498;2023-12-20T11:19:13;3.70;;;1.60;;
41897;SDS011;27576;53.366;-1.498;2023-12-20T11:21:41;6.03;;;1.98;;
41897;SDS011;27576;53.366;-1.498;2023-12-20T11:24:06;7.80;;;2.10;;
41897;SDS011;27576;53.366;-1.498;2023-12-20T11:26:32;9.07;;;2.13;;
41897;SDS011;27576;53.366;-1.498;2023-12-20T11:29:29;8.98;;;1.80;;
41897;SDS011;27576;53.366;-1.498;2023-12-20T11:31:56;8.65;;;1.40;;
41897;SDS011;27576;53.366;-1.498;2023-12-20T11:34:21;4.35;;;1.63;;
41897;SDS011;27576;53.366;-1.498;2023-12-20T11:36:46;9.80;;;2.28;;
41897;SDS011;27576;53.366;-1.498;2023-12-20T11:39:12;6.30;;;1.60;;
41897;SDS011;27576;53.366;-1.498;2023-12-20T11:41:46;8.50;;;1.90;;
41897;SDS011;27576;53.366;-1.498;2023-12-20T11:44:11;8.27;;;1.98;;
41897;SDS011;27576;53.366;-1.498;2023-12-20T11:46:37;11.00;;;2.28;;
41897;SDS011;27576;53.366;-1.498;2023-12-20T11:49:02;10.02;;;2.20;;
41897;SDS011;27576;53.366;-1.498;2023-12-20T11:51:28;16.33;;;3.30;;
41897;SDS011;27576;53.366;-1.498;2023-12-20T11:53:53;16.73;;;2.92;;
41897;SDS011;27576;53.366;-1.498;2023-12-20T11:56:19;15.75;;;3.08;;
41897;SDS011;27576;53.366;-1.498;2023-12-20T11:58:45;15.60;;;2.92;;
41897;SDS011;27576;53.366;-1.498;2023-12-20T12:01:10;11.60;;;2.80;;
41897;SDS011;27576;53.366;-1.498;2023-12-20T12:03:36;11.18;;;2.97;;
41897;SDS011;27576;53.366;-1.498;2023-12-20T12:06:01;15.57;;;3.35;;
41897;SDS011;27576;53.366;-1.498;2023-12-20T12:08:29;10.07;;;2.97;;
41897;SDS011;27576;53.366;-1.498;2023-12-20T12:10:55;12.93;;;3.28;;
41897;SDS011;27576;53.366;-1.498;2023-12-20T12:13:20;11.00;;;2.90;;
41897;SDS011;27576;53.366;-1.498;2023-12-20T12:15:47;7.50;;;2.47;;
41897;SDS011;27576;53.366;-1.498;2023-12-20T12:18:15;11.05;;;2.47;;
41897;SDS011;27576;53.366;-1.498;2023-12-20T12:20:42;13.02;;;2.65;;
41897;SDS011;27576;53.366;-1.498;2023-12-20T12:23:07;9.77;;;2.20;;
41897;SDS011;27576;53.366;-1.498;2023-12-20T12:25:35;9.52;;;2.22;;
41897;SDS011;27576;53.366;-1.498;2023-12-20T12:28:01;6.97;;;2.45;;
41897;SDS011;27576;53.366;-1.498;2023-12-20T12:30:27;10.13;;;2.42;;
41897;SDS011;27576;53.366;-1.498;2023-12-20T12:32:52;10.32;;;2.85;;
41897;SDS011;27576;53.366;-1.498;2023-12-20T12:35:18;9.82;;;2.08;;
41897;SDS011;27576;53.366;-1.498;2023-12-20T12:37:44;9.50;;;2.40;;
41897;SDS011;27576;53.366;-1.498;2023-12-20T12:40:10;7.75;;;2.35;;
41897;SDS011;27576;53.366;-1.498;2023-12-20T12:42:37;10.68;;;2.42;;
41897;SDS011;27576;53.366;-1.498;2023-12-20T12:45:03;7.75;;;2.30;;
41897;SDS011;27576;53.366;-1.498;2023-12-20T12:47:29;9.27;;;2.50;;
41897;SDS011;27576;53.366;-1.498;2023-12-20T12:49:55;9.35;;;2.42;;
41897;SDS011;27576;53.366;-1.498;2023-12-20T12:52:21;8.88;;;2.38;;
41897;SDS011;27576;53.366;-1.498;2023-12-20T12:54:46;7.57;;;2.10;;
41897;SDS011;27576;53.366;-1.498;2023-12-20T12:57:13;8.30;;;1.85;;
41897;SDS011;27576;53.366;-1.498;2023-12-20T12:59:40;14.43;;;2.88;;
41897;SDS011;27576;53.366;-1.498;2023-12-20T13:02:05;8.50;;;2.05;;
41897;SDS011;27576;53.366;-1.498;2023-12-20T13:04:31;8.05;;;1.75;;
41897;SDS011;27576;53.366;-1.498;2023-12-20T13:06:56;8.30;;;2.28;;
41897;SDS011;27576;53.366;-1.498;2023-12-20T13:09:22;7.68;;;2.25;;
41897;SDS011;27576;53.366;-1.498;2023-12-20T13:11:48;4.00;;;1.70;;
41897;SDS011;27576;53.366;-1.498;2023-12-20T13:14:13;4.00;;;1.42;;
41897;SDS011;27576;53.366;-1.498;2023-12-20T13:16:41;6.53;;;1.42;;
41897;SDS011;27576;53.366;-1.498;2023-12-20T13:19:07;5.55;;;1.65;;
41897;SDS011;27576;53.366;-1.498;2023-12-20T13:21:32;3.95;;;1.27;;
41897;SDS011;27576;53.366;-1.498;2023-12-20T13:23:58;7.97;;;1.70;;
41897;SDS011;27576;53.366;-1.498;2023-12-20T13:26:23;5.75;;;1.40;;
41897;SDS011;27576;53.366;-1.498;2023-12-20T13:28:49;4.90;;;1.60;;
41897;SDS011;27576;53.366;-1.498;2023-12-20T13:31:14;5.82;;;1.58;;
41897;SDS011;27576;53.366;-1.498;2023-12-20T13:33:40;3.65;;;1.17;;
41897;SDS011;27576;53.366;-1.498;2023-12-20T13:36:05;5.17;;;1.57;;
41897;SDS011;27576;53.366;-1.498;2023-12-20T13:38:31;5.10;;;1.77;;
41897;SDS011;27576;53.366;-1.498;2023-12-20T13:40:57;7.57;;;1.83;;
41897;SDS011;27576;53.366;-1.498;2023-12-20T13:43:23;9.73;;;2.05;;
41897;SDS011;27576;53.366;-1.498;2023-12-20T13:45:49;7.07;;;2.03;;
41897;SDS011;27576;53.366;-1.498;2023-12-20T13:48:15;9.35;;;2.28;;
41897;SDS011;27576;53.366;-1.498;2023-12-20T13:50:41;7.57;;;2.53;;
41897;SDS011;27576;53.366;-1.498;2023-12-20T13:53:07;8.35;;;2.05;;
41897;SDS011;27576;53.366;-1.498;2023-12-20T13:55:32;6.68;;;2.17;;
41897;SDS011;27576;53.366;-1.498;2023-12-20T13:57:57;6.30;;;1.73;;
41897;SDS011;27576;53.366;-1.498;2023-12-20T14:00:23;6.88;;;1.60;;
41897;SDS011;27576;53.366;-1.498;2023-12-20T14:02:48;6.80;;;1.75;;
41897;SDS011;27576;53.366;-1.498;2023-12-20T14:05:15;7.55;;;1.77;;
41897;SDS011;27576;53.366;-1.498;2023-12-20T14:07:42;5.90;;;1.45;;
41897;SDS011;27576;53.366;-1.498;2023-12-20T14:10:12;4.85;;;2.22;;
41897;SDS011;27576;53.366;-1.498;2023-12-20T14:12:38;6.25;;;1.70;;
41897;SDS011;27576;53.366;-1.498;2023-12-20T14:15:04;4.07;;;1.55;;
41897;SDS011;27576;53.366;-1.498;2023-12-20T14:17:36;7.82;;;1.70;;
41897;SDS011;27576;53.366;-1.498;2023-12-20T14:20:07;8.90;;;2.75;;
41897;SDS011;27576;53.366;-1.498;2023-12-20T14:22:33;4.60;;;1.27;;
41897;SDS011;27576;53.366;-1.498;2023-12-20T14:24:59;6.55;;;1.50;;